地図

経路データ

SID SEASON NUMBER BASIN SUBBASIN NAME ISO_TIME NATURE LAT LON WMO_WIND WMO_PRES WMO_AGENCY TRACK_TYPE DIST2LAND LANDFALL IFLAG USA_AGENCY USA_ATCF_ID USA_LAT USA_LON USA_RECORD USA_STATUS USA_WIND USA_PRES USA_SSHS USA_R34_NE USA_R34_SE USA_R34_SW USA_R34_NW USA_R50_NE USA_R50_SE USA_R50_SW USA_R50_NW USA_R64_NE USA_R64_SE USA_R64_SW USA_R64_NW USA_POCI USA_ROCI USA_RMW USA_EYE TOKYO_LAT TOKYO_LON TOKYO_GRADE TOKYO_WIND TOKYO_PRES TOKYO_R50_DIR TOKYO_R50_LONG TOKYO_R50_SHORT TOKYO_R30_DIR TOKYO_R30_LONG TOKYO_R30_SHORT TOKYO_LAND CMA_LAT CMA_LON CMA_CAT CMA_WIND CMA_PRES HKO_LAT HKO_LON HKO_CAT HKO_WIND HKO_PRES NEWDELHI_LAT NEWDELHI_LON NEWDELHI_GRADE NEWDELHI_WIND NEWDELHI_PRES NEWDELHI_CI NEWDELHI_DP NEWDELHI_POCI REUNION_LAT REUNION_LON REUNION_TYPE REUNION_WIND REUNION_PRES REUNION_TNUM REUNION_CI REUNION_RMW REUNION_R34_NE REUNION_R34_SE REUNION_R34_SW REUNION_R34_NW REUNION_R50_NE REUNION_R50_SE REUNION_R50_SW REUNION_R50_NW REUNION_R64_NE REUNION_R64_SE REUNION_R64_SW REUNION_R64_NW BOM_LAT BOM_LON BOM_TYPE BOM_WIND BOM_PRES BOM_TNUM BOM_CI BOM_RMW BOM_R34_NE BOM_R34_SE BOM_R34_SW BOM_R34_NW BOM_R50_NE BOM_R50_SE BOM_R50_SW BOM_R50_NW BOM_R64_NE BOM_R64_SE BOM_R64_SW BOM_R64_NW BOM_ROCI BOM_POCI BOM_EYE BOM_POS_METHOD BOM_PRES_METHOD NADI_LAT NADI_LON NADI_CAT NADI_WIND NADI_PRES WELLINGTON_LAT WELLINGTON_LON WELLINGTON_WIND WELLINGTON_PRES DS824_LAT DS824_LON DS824_STAGE DS824_WIND DS824_PRES TD9636_LAT TD9636_LON TD9636_STAGE TD9636_WIND TD9636_PRES TD9635_LAT TD9635_LON TD9635_WIND TD9635_PRES TD9635_ROCI NEUMANN_LAT NEUMANN_LON NEUMANN_CLASS NEUMANN_WIND NEUMANN_PRES MLC_LAT MLC_LON MLC_CLASS MLC_WIND MLC_PRES USA_GUST BOM_GUST BOM_GUST_PER REUNION_GUST REUNION_GUST_PER USA_SEAHGT USA_SEARAD_NE USA_SEARAD_SE USA_SEARAD_SW USA_SEARAD_NW STORM_SPEED STORM_DIR
2014201N09331 2014 45 NA NA NOT_NAMED 2014-07-19 12:00:00 DS 9.00000 -29.0000 20 1012 hurdat_atl main 1387 1387 O_____________ hurdat_atl AL022014 9.00000 -29.0000 LO 20 1012 -3 1015 150 40 19 283
2014201N09331 2014 45 NA NA NOT_NAMED 2014-07-19 15:00:00 DS 9.21067 -29.9122 main 1475 1475 P_____________ AL022014 9.21067 -29.9122 LO 20 1012 -3 1015 150 40 17 283
2014201N09331 2014 45 NA NA NOT_NAMED 2014-07-19 18:00:00 DS 9.40000 -30.7000 20 1012 hurdat_atl main 1553 1553 O_____________ hurdat_atl AL022014 9.40000 -30.7000 LO 20 1012 -3 1015 150 40 14 284
2014201N09331 2014 45 NA NA NOT_NAMED 2014-07-19 21:00:00 DS 9.55712 -31.2876 main 1605 1605 P_____________ AL022014 9.55712 -31.2876 LO 20 1012 -3 1015 150 40 11 285
2014201N09331 2014 45 NA NA NOT_NAMED 2014-07-20 00:00:00 DS 9.70000 -31.8000 20 1012 hurdat_atl main 1652 1645 O_____________ hurdat_atl AL022014 9.70000 -31.8000 LO 20 1012 -3 1015 150 40 11 285
2014201N09331 2014 45 NA NA NOT_NAMED 2014-07-20 03:00:00 DS 9.84235 -32.3776 main 1640 1630 P_____________ AL022014 9.84235 -32.3776 LO 20 1012 -3 1015 150 40 12 284
2014201N09331 2014 45 NA NA NOT_NAMED 2014-07-20 06:00:00 DS 10.0000 -33.0000 20 1012 hurdat_atl main 1630 1615 O_____________ hurdat_atl AL022014 10.0000 -33.0000 LO 20 1012 -3 1015 150 40 13 286
2014201N09331 2014 45 NA NA NOT_NAMED 2014-07-20 09:00:00 DS 10.1998 -33.6625 main 1616 1604 P_____________ AL022014 10.1998 -33.6625 LO 20 1012 -3 1015 150 40 14 286
2014201N09331 2014 45 NA NA NOT_NAMED 2014-07-20 12:00:00 DS 10.4000 -34.4000 20 1012 hurdat_atl main 1605 1585 O_____________ hurdat_atl AL022014 10.4000 -34.4000 LO 20 1012 -3 1015 150 40 16 283
2014201N09331 2014 45 NA NA NOT_NAMED 2014-07-20 15:00:00 DS 10.5573 -35.2127 main 1596 1579 P_____________ AL022014 10.5573 -35.2127 LO 20 1012 -3 1015 150 40 17 280
2014201N09331 2014 45 NA NA NOT_NAMED 2014-07-20 18:00:00 DS 10.7000 -36.1000 20 1012 hurdat_atl main 1578 1566 O_____________ hurdat_atl AL022014 10.7000 -36.1000 LO 20 1012 -3 1015 150 40 18 280
2014201N09331 2014 45 NA NA NOT_NAMED 2014-07-20 21:00:00 DS 10.8573 -37.0350 main 1577 1565 P_____________ AL022014 10.8573 -37.0350 LO 22 1012 -3 1015 150 40 19 279
2014201N09331 2014 45 NA NA NOT_NAMED 2014-07-21 00:00:00 DS 11.0000 -38.0000 25 1012 hurdat_atl main 1570 1560 O_____________ hurdat_atl AL022014 11.0000 -38.0000 LO 25 1012 -3 1015 150 40 19 278
2014201N09331 2014 45 NA NA NOT_NAMED 2014-07-21 03:00:00 DS 11.1073 -38.9651 main 1555 1484 P_____________ AL022014 11.1073 -38.9651 LO 25 1012 -3 1015 150 40 19 276
2014201N09331 2014 45 NA NA NOT_NAMED 2014-07-21 06:00:00 DS 11.2000 -39.9000 25 1012 hurdat_atl main 1475 1406 O_____________ hurdat_atl AL022014 11.2000 -39.9000 LO 25 1012 -3 1015 150 40 18 276
2014201N09331 2014 45 NA NA NOT_NAMED 2014-07-21 09:00:00 DS 11.2997 -40.7800 main 1397 1332 P_____________ AL022014 11.2997 -40.7800 LO 27 1012 -3 1015 150 40 17 277
2014201N09331 2014 45 NA NA NOT_NAMED 2014-07-21 12:00:00 TS 11.4000 -41.6000 30 1012 hurdat_atl main 1332 1278 O_____________ hurdat_atl AL022014 11.4000 -41.6000 TD 30 1012 -1 1015 150 40 16 277
2014201N09331 2014 45 NA NA NOT_NAMED 2014-07-21 15:00:00 TS 11.4923 -42.3801 main 1269 1218 P_____________ AL022014 11.4923 -42.3801 TD 30 1012 -1 1015 150 40 15 278
2014201N09331 2014 45 NA NA NOT_NAMED 2014-07-21 18:00:00 TS 11.6000 -43.1000 30 1012 hurdat_atl main 1218 1178 O_____________ hurdat_atl AL022014 11.6000 -43.1000 TD 30 1012 -1 1015 150 40 14 281
2014201N09331 2014 45 NA NA NOT_NAMED 2014-07-21 21:00:00 TS 11.7497 -43.7650 main 1170 1141 P_____________ AL022014 11.7497 -43.7650 TD 30 1012 -1 1015 150 40 13 283
2014201N09331 2014 45 NA NA NOT_NAMED 2014-07-22 00:00:00 TS 11.9000 -44.4000 30 1012 hurdat_atl main 1141 1106 O_____________ hurdat_atl AL022014 11.9000 -44.4000 TD 30 1012 -1 1015 150 40 40 13 281
2014201N09331 2014 45 NA NA NOT_NAMED 2014-07-22 03:00:00 TS 11.9997 -45.0352 main 1106 1069 P_____________ AL022014 11.9997 -45.0352 TD 30 1012 -1 1014 135 40 13 279
2014201N09331 2014 45 NA NA NOT_NAMED 2014-07-22 06:00:00 TS 12.1000 -45.7000 30 1012 hurdat_atl main 1069 1036 O_____________ hurdat_atl AL022014 12.1000 -45.7000 TD 30 1012 -1 1014 120 40 40 14 280
2014201N09331 2014 45 NA NA NOT_NAMED 2014-07-22 09:00:00 TS 12.2349 -46.4276 main 1036 1001 P_____________ AL022014 12.2349 -46.4276 TD 30 1012 -1 1014 120 40 15 282
2014201N09331 2014 45 NA NA NOT_NAMED 2014-07-22 12:00:00 TS 12.4000 -47.2000 30 1012 hurdat_atl main 1001 973 O_____________ hurdat_atl AL022014 12.4000 -47.2000 TD 30 1012 -1 1014 120 40 40 16 283
2014201N09331 2014 45 NA NA NOT_NAMED 2014-07-22 15:00:00 TS 12.5923 -47.9925 main 970 948 P_____________ AL022014 12.5923 -47.9925 TD 30 1012 -1 1014 120 40 16 284
2014201N09331 2014 45 NA NA NOT_NAMED 2014-07-22 18:00:00 TS 12.8000 -48.8000 30 1012 hurdat_atl main 948 929 O_____________ hurdat_atl AL022014 12.8000 -48.8000 TD 30 1012 -1 1014 120 40 40 16 284
2014201N09331 2014 45 NA NA NOT_NAMED 2014-07-22 21:00:00 TS 12.9921 -49.5853 main 931 917 P_____________ AL022014 12.9921 -49.5853 TD 30 1012 -1 1014 120 40 16 284
2014201N09331 2014 45 NA NA NOT_NAMED 2014-07-23 00:00:00 TS 13.2000 -50.4000 30 1012 hurdat_atl main 917 902 O_____________ hurdat_atl AL022014 13.2000 -50.4000 TD 30 1012 -1 1014 120 40 40 17 286
2014201N09331 2014 45 NA NA NOT_NAMED 2014-07-23 03:00:00 TS 13.4564 -51.2102 main 912 898 P_____________ AL022014 13.4564 -51.2102 TD 30 1012 -1 1014 105 35 18 286
2014201N09331 2014 45 NA NA NOT_NAMED 2014-07-23 06:00:00 TS 13.7000 -52.2000 30 1012 hurdat_atl main 900 891 O_____________ hurdat_atl AL022014 13.7000 -52.2000 TD 30 1012 -1 1014 90 30 40 23 281
2014201N09331 2014 45 NA NA NOT_NAMED 2014-07-23 09:00:00 TS 13.8750 -53.5047 main 890 758 P_____________ AL022014 13.8750 -53.5047 TD 30 1012 -1 1014 90 30 27 276
2014201N09331 2014 45 NA NA NOT_NAMED 2014-07-23 12:00:00 TS 14.0000 -55.0000 30 1012 hurdat_atl main 749 O_____________ hurdat_atl AL022014 14.0000 -55.0000 TD 30 1012 -1 1014 90 30 40 29 275

IBTrACS Databaseについて

本データベースは、米国NOAAが公開する1842年以降の世界の熱帯低気圧のベストトラックデータアーカイブInternational Best Track Archive for Climate Stewardship (IBTrACS)を、ウェブで閲覧しやすい形式に変換したものです。

最終更新日:2021-10-08